sensor_id;sensor_type;location;lat;lon;timestamp;P1;durP1;ratioP1;P2;durP2;ratioP2
1416;SDS011;703;51.162;13.574;2023-11-18T09:00:47;7.77;;;7.10;;
1416;SDS011;703;51.162;13.574;2023-11-18T09:03:18;7.10;;;6.70;;
1416;SDS011;703;51.162;13.574;2023-11-18T09:05:59;7.13;;;6.73;;
1416;SDS011;703;51.162;13.574;2023-11-18T09:11:02;7.97;;;7.40;;
1416;SDS011;703;51.162;13.574;2023-11-18T09:13:30;7.70;;;7.20;;
1416;SDS011;703;51.162;13.574;2023-11-18T09:15:57;8.40;;;7.90;;
1416;SDS011;703;51.162;13.574;2023-11-18T09:18:25;8.80;;;7.97;;
1416;SDS011;703;51.162;13.574;2023-11-18T09:20:52;9.60;;;9.00;;
1416;SDS011;703;51.162;13.574;2023-11-18T09:23:19;7.60;;;7.30;;
1416;SDS011;703;51.162;13.574;2023-11-18T09:25:46;7.27;;;6.77;;
1416;SDS011;703;51.162;13.574;2023-11-18T09:28:12;7.87;;;7.27;;
1416;SDS011;703;51.162;13.574;2023-11-18T09:30:39;7.27;;;6.97;;
1416;SDS011;703;51.162;13.574;2023-11-18T09:33:14;9.10;;;8.50;;
1416;SDS011;703;51.162;13.574;2023-11-18T09:35:50;7.83;;;7.47;;
1416;SDS011;703;51.162;13.574;2023-11-18T09:40:53;10.83;;;9.90;;
1416;SDS011;703;51.162;13.574;2023-11-18T09:43:19;9.50;;;8.83;;
1416;SDS011;703;51.162;13.574;2023-11-18T09:45:47;8.73;;;8.37;;
1416;SDS011;703;51.162;13.574;2023-11-18T09:48:22;9.07;;;8.30;;
1416;SDS011;703;51.162;13.574;2023-11-18T09:50:51;9.03;;;6.73;;
1416;SDS011;703;51.162;13.574;2023-11-18T09:53:17;8.30;;;7.80;;
1416;SDS011;703;51.162;13.574;2023-11-18T09:55:59;9.23;;;8.83;;
1416;SDS011;703;51.162;13.574;2023-11-18T09:58:37;8.97;;;8.43;;
1416;SDS011;703;51.162;13.574;2023-11-18T10:01:09;13.93;;;10.73;;
1416;SDS011;703;51.162;13.574;2023-11-18T10:03:39;9.00;;;8.40;;
1416;SDS011;703;51.162;13.574;2023-11-18T10:06:07;8.97;;;8.50;;
1416;SDS011;703;51.162;13.574;2023-11-18T10:08:34;7.97;;;7.53;;
1416;SDS011;703;51.162;13.574;2023-11-18T10:11:03;10.17;;;9.30;;
1416;SDS011;703;51.162;13.574;2023-11-18T10:13:34;11.50;;;10.70;;
1416;SDS011;703;51.162;13.574;2023-11-18T10:16:03;9.07;;;8.47;;
1416;SDS011;703;51.162;13.574;2023-11-18T10:18:30;9.70;;;9.20;;
1416;SDS011;703;51.162;13.574;2023-11-18T10:21:00;9.67;;;9.07;;
1416;SDS011;703;51.162;13.574;2023-11-18T10:23:26;9.43;;;8.83;;
1416;SDS011;703;51.162;13.574;2023-11-18T10:25:53;8.83;;;8.43;;
1416;SDS011;703;51.162;13.574;2023-11-18T10:28:28;8.67;;;8.27;;
1416;SDS011;703;51.162;13.574;2023-11-18T10:31:03;9.70;;;9.07;;
1416;SDS011;703;51.162;13.574;2023-11-18T10:33:37;8.90;;;8.40;;
1416;SDS011;703;51.162;13.574;2023-11-18T10:36:06;9.07;;;8.57;;
1416;SDS011;703;51.162;13.574;2023-11-18T10:38:47;9.07;;;8.67;;
1416;SDS011;703;51.162;13.574;2023-11-18T10:41:19;12.50;;;11.30;;
1416;SDS011;703;51.162;13.574;2023-11-18T10:43:45;10.47;;;9.77;;
1416;SDS011;703;51.162;13.574;2023-11-18T10:46:13;10.60;;;9.80;;
1416;SDS011;703;51.162;13.574;2023-11-18T10:48:49;10.20;;;9.70;;
1416;SDS011;703;51.162;13.574;2023-11-18T10:51:16;9.23;;;8.83;;
1416;SDS011;703;51.162;13.574;2023-11-18T10:53:44;13.80;;;12.70;;
1416;SDS011;703;51.162;13.574;2023-11-18T10:56:21;10.10;;;9.70;;
1416;SDS011;703;51.162;13.574;2023-11-18T10:58:57;9.80;;;9.30;;
1416;SDS011;703;51.162;13.574;2023-11-18T11:01:27;9.90;;;9.37;;
1416;SDS011;703;51.162;13.574;2023-11-18T11:03:57;9.20;;;8.77;;
1416;SDS011;703;51.162;13.574;2023-11-18T11:06:23;11.30;;;10.50;;
1416;SDS011;703;51.162;13.574;2023-11-18T11:08:50;10.27;;;9.57;;
1416;SDS011;703;51.162;13.574;2023-11-18T11:11:22;9.83;;;9.40;;
1416;SDS011;703;51.162;13.574;2023-11-18T11:13:53;9.40;;;8.87;;
1416;SDS011;703;51.162;13.574;2023-11-18T11:16:22;10.43;;;9.63;;
1416;SDS011;703;51.162;13.574;2023-11-18T11:18:55;9.57;;;9.10;;
1416;SDS011;703;51.162;13.574;2023-11-18T11:21:25;9.90;;;9.33;;
1416;SDS011;703;51.162;13.574;2023-11-18T11:23:55;9.53;;;9.13;;
1416;SDS011;703;51.162;13.574;2023-11-18T11:26:45;11.40;;;10.80;;
1416;SDS011;703;51.162;13.574;2023-11-18T11:32:12;10.03;;;9.53;;
1416;SDS011;703;51.162;13.574;2023-11-18T11:34:53;9.70;;;9.20;;
1416;SDS011;703;51.162;13.574;2023-11-18T11:37:22;7.77;;;7.47;;
1416;SDS011;703;51.162;13.574;2023-11-18T11:39:50;8.73;;;8.43;;
1416;SDS011;703;51.162;13.574;2023-11-18T11:42:18;9.57;;;9.17;;
1416;SDS011;703;51.162;13.574;2023-11-18T11:44:46;8.60;;;8.30;;
1416;SDS011;703;51.162;13.574;2023-11-18T11:47:13;9.43;;;9.03;;
1416;SDS011;703;51.162;13.574;2023-11-18T11:49:49;9.60;;;9.03;;
1416;SDS011;703;51.162;13.574;2023-11-18T11:52:31;11.00;;;10.40;;
1416;SDS011;703;51.162;13.574;2023-11-18T11:58:03;10.30;;;9.90;;
1416;SDS011;703;51.162;13.574;2023-11-18T12:00:31;10.97;;;10.57;;
1416;SDS011;703;51.162;13.574;2023-11-18T12:03:00;9.87;;;9.47;;
1416;SDS011;703;51.162;13.574;2023-11-18T12:05:29;9.77;;;9.37;;
1416;SDS011;703;51.162;13.574;2023-11-18T12:07:58;10.37;;;9.80;;
1416;SDS011;703;51.162;13.574;2023-11-18T12:10:27;9.13;;;8.83;;
1416;SDS011;703;51.162;13.574;2023-11-18T12:13:09;10.40;;;9.90;;
1416;SDS011;703;51.162;13.574;2023-11-18T12:15:51;10.50;;;10.00;;
1416;SDS011;703;51.162;13.574;2023-11-18T12:18:28;10.37;;;9.87;;
1416;SDS011;703;51.162;13.574;2023-11-18T12:20:58;9.83;;;9.43;;
1416;SDS011;703;51.162;13.574;2023-11-18T12:23:27;9.20;;;8.90;;
1416;SDS011;703;51.162;13.574;2023-11-18T12:25:56;10.80;;;10.30;;
1416;SDS011;703;51.162;13.574;2023-11-18T12:28:28;9.77;;;9.33;;
1416;SDS011;703;51.162;13.574;2023-11-18T12:31:04;12.10;;;11.50;;
1416;SDS011;703;51.162;13.574;2023-11-18T12:34:00;10.67;;;10.17;;
1416;SDS011;703;51.162;13.574;2023-11-18T12:39:09;11.03;;;10.63;;
1416;SDS011;703;51.162;13.574;2023-11-18T12:42:03;11.27;;;10.70;;
1416;SDS011;703;51.162;13.574;2023-11-18T12:44:33;10.67;;;10.27;;
1416;SDS011;703;51.162;13.574;2023-11-18T12:47:04;11.50;;;11.00;;
1416;SDS011;703;51.162;13.574;2023-11-18T12:49:47;10.53;;;10.03;;
1416;SDS011;703;51.162;13.574;2023-11-18T12:52:19;10.17;;;9.60;;
1416;SDS011;703;51.162;13.574;2023-11-18T12:54:46;10.00;;;9.57;;
1416;SDS011;703;51.162;13.574;2023-11-18T12:57:16;9.73;;;9.23;;
1416;SDS011;703;51.162;13.574;2023-11-18T12:59:44;10.53;;;10.13;;
1416;SDS011;703;51.162;13.574;2023-11-18T13:02:11;12.30;;;11.70;;
1416;SDS011;703;51.162;13.574;2023-11-18T13:04:46;10.70;;;10.30;;
1416;SDS011;703;51.162;13.574;2023-11-18T13:07:17;10.33;;;9.93;;
1416;SDS011;703;51.162;13.574;2023-11-18T13:09:44;10.37;;;9.97;;
1416;SDS011;703;51.162;13.574;2023-11-18T13:12:11;10.00;;;9.60;;
1416;SDS011;703;51.162;13.574;2023-11-18T13:14:40;11.47;;;10.37;;
1416;SDS011;703;51.162;13.574;2023-11-18T13:17:11;11.47;;;10.83;;
1416;SDS011;703;51.162;13.574;2023-11-18T13:19:38;11.20;;;10.70;;
1416;SDS011;703;51.162;13.574;2023-11-18T13:22:05;12.33;;;11.80;;
1416;SDS011;703;51.162;13.574;2023-11-18T13:24:35;9.90;;;9.50;;
1416;SDS011;703;51.162;13.574;2023-11-18T13:27:10;10.47;;;9.87;;
1416;SDS011;703;51.162;13.574;2023-11-18T13:29:38;11.60;;;10.73;;
1416;SDS011;703;51.162;13.574;2023-11-18T13:32:10;10.33;;;9.93;;
1416;SDS011;703;51.162;13.574;2023-11-18T13:34:37;11.67;;;11.17;;
1416;SDS011;703;51.162;13.574;2023-11-18T13:37:07;11.00;;;10.50;;
1416;SDS011;703;51.162;13.574;2023-11-18T13:39:35;10.23;;;9.53;;
1416;SDS011;703;51.162;13.574;2023-11-18T13:42:19;10.37;;;9.97;;
1416;SDS011;703;51.162;13.574;2023-11-18T13:44:45;10.10;;;9.70;;
1416;SDS011;703;51.162;13.574;2023-11-18T13:47:13;10.40;;;9.87;;
1416;SDS011;703;51.162;13.574;2023-11-18T13:49:38;10.93;;;10.37;;
1416;SDS011;703;51.162;13.574;2023-11-18T13:52:08;10.37;;;9.97;;
1416;SDS011;703;51.162;13.574;2023-11-18T13:54:36;10.87;;;10.40;;
1416;SDS011;703;51.162;13.574;2023-11-18T13:57:05;10.67;;;10.10;;
1416;SDS011;703;51.162;13.574;2023-11-18T13:59:31;9.90;;;9.33;;
1416;SDS011;703;51.162;13.574;2023-11-18T14:01:58;11.50;;;10.70;;
1416;SDS011;703;51.162;13.574;2023-11-18T14:04:27;11.10;;;10.70;;
1416;SDS011;703;51.162;13.574;2023-11-18T14:06:53;10.33;;;9.93;;
1416;SDS011;703;51.162;13.574;2023-11-18T14:09:22;11.20;;;10.70;;
1416;SDS011;703;51.162;13.574;2023-11-18T14:11:50;9.53;;;9.13;;
1416;SDS011;703;51.162;13.574;2023-11-18T14:14:16;11.70;;;11.03;;
1416;SDS011;703;51.162;13.574;2023-11-18T14:16:42;11.87;;;11.10;;
1416;SDS011;703;51.162;13.574;2023-11-18T14:19:08;11.33;;;10.77;;
1416;SDS011;703;51.162;13.574;2023-11-18T14:21:36;10.80;;;10.17;;
1416;SDS011;703;51.162;13.574;2023-11-18T14:24:01;11.47;;;10.87;;
1416;SDS011;703;51.162;13.574;2023-11-18T14:26:28;11.20;;;10.50;;
1416;SDS011;703;51.162;13.574;2023-11-18T14:28:54;12.20;;;11.60;;
1416;SDS011;703;51.162;13.574;2023-11-18T14:31:20;11.20;;;10.70;;
1416;SDS011;703;51.162;13.574;2023-11-18T14:33:47;13.37;;;12.63;;
1416;SDS011;703;51.162;13.574;2023-11-18T14:36:13;13.00;;;12.40;;
1416;SDS011;703;51.162;13.574;2023-11-18T14:38:39;26.97;;;23.53;;
1416;SDS011;703;51.162;13.574;2023-11-18T14:41:05;22.00;;;19.47;;
1416;SDS011;703;51.162;13.574;2023-11-18T14:43:32;21.37;;;19.57;;
1416;SDS011;703;51.162;13.574;2023-11-18T14:45:58;19.27;;;17.37;;
1416;SDS011;703;51.162;13.574;2023-11-18T14:48:24;15.70;;;14.90;;
1416;SDS011;703;51.162;13.574;2023-11-18T14:50:50;18.23;;;16.80;;
1416;SDS011;703;51.162;13.574;2023-11-18T14:53:15;17.23;;;14.23;;
1416;SDS011;703;51.162;13.574;2023-11-18T14:55:41;12.50;;;11.80;;
1416;SDS011;703;51.162;13.574;2023-11-18T14:58:07;11.57;;;10.90;;
1416;SDS011;703;51.162;13.574;2023-11-18T15:00:32;14.70;;;13.63;;
1416;SDS011;703;51.162;13.574;2023-11-18T15:02:58;17.43;;;14.70;;
1416;SDS011;703;51.162;13.574;2023-11-18T15:05:24;15.33;;;13.43;;
1416;SDS011;703;51.162;13.574;2023-11-18T15:07:51;14.23;;;12.50;;
1416;SDS011;703;51.162;13.574;2023-11-18T15:10:18;12.17;;;11.33;;
1416;SDS011;703;51.162;13.574;2023-11-18T15:13:05;10.20;;;9.30;;
1416;SDS011;703;51.162;13.574;2023-11-18T15:15:31;20.87;;;8.53;;
1416;SDS011;703;51.162;13.574;2023-11-18T15:17:57;8.23;;;7.70;;
1416;SDS011;703;51.162;13.574;2023-11-18T15:20:24;8.80;;;7.40;;
1416;SDS011;703;51.162;13.574;2023-11-18T15:22:50;8.10;;;7.50;;
1416;SDS011;703;51.162;13.574;2023-11-18T15:25:16;9.23;;;8.50;;
1416;SDS011;703;51.162;13.574;2023-11-18T15:27:45;5.90;;;5.50;;
1416;SDS011;703;51.162;13.574;2023-11-18T15:30:12;10.77;;;7.57;;
1416;SDS011;703;51.162;13.574;2023-11-18T15:32:39;12.60;;;9.37;;
1416;SDS011;703;51.162;13.574;2023-11-18T15:35:09;11.03;;;9.10;;
1416;SDS011;703;51.162;13.574;2023-11-18T15:37:35;8.63;;;7.90;;
1416;SDS011;703;51.162;13.574;2023-11-18T15:40:03;7.43;;;6.93;;
1416;SDS011;703;51.162;13.574;2023-11-18T15:42:35;8.00;;;7.50;;
1416;SDS011;703;51.162;13.574;2023-11-18T15:45:02;9.30;;;7.30;;
1416;SDS011;703;51.162;13.574;2023-11-18T15:47:28;18.10;;;10.50;;
1416;SDS011;703;51.162;13.574;2023-11-18T15:49:53;6.87;;;6.37;;
1416;SDS011;703;51.162;13.574;2023-11-18T15:52:19;7.43;;;7.03;;
1416;SDS011;703;51.162;13.574;2023-11-18T15:54:45;9.33;;;8.83;;
1416;SDS011;703;51.162;13.574;2023-11-18T15:57:11;7.73;;;7.17;;
1416;SDS011;703;51.162;13.574;2023-11-18T15:59:37;8.83;;;7.93;;
1416;SDS011;703;51.162;13.574;2023-11-18T16:02:03;8.93;;;8.43;;
1416;SDS011;703;51.162;13.574;2023-11-18T16:04:30;8.27;;;7.77;;
1416;SDS011;703;51.162;13.574;2023-11-18T16:06:56;7.87;;;7.27;;
1416;SDS011;703;51.162;13.574;2023-11-18T16:09:21;8.57;;;7.87;;
1416;SDS011;703;51.162;13.574;2023-11-18T16:11:47;8.90;;;8.40;;
1416;SDS011;703;51.162;13.574;2023-11-18T16:14:14;11.03;;;9.93;;
1416;SDS011;703;51.162;13.574;2023-11-18T16:16:41;8.17;;;7.47;;
1416;SDS011;703;51.162;13.574;2023-11-18T16:19:09;8.67;;;8.10;;
1416;SDS011;703;51.162;13.574;2023-11-18T16:21:38;11.17;;;10.03;;
1416;SDS011;703;51.162;13.574;2023-11-18T16:24:04;9.30;;;8.80;;
1416;SDS011;703;51.162;13.574;2023-11-18T16:26:30;13.00;;;11.90;;
1416;SDS011;703;51.162;13.574;2023-11-18T16:28:55;9.37;;;8.67;;
1416;SDS011;703;51.162;13.574;2023-11-18T16:31:22;9.13;;;8.40;;
1416;SDS011;703;51.162;13.574;2023-11-18T16:33:48;9.93;;;9.30;;
1416;SDS011;703;51.162;13.574;2023-11-18T16:36:19;13.07;;;11.73;;
1416;SDS011;703;51.162;13.574;2023-11-18T16:38:53;14.27;;;12.37;;
1416;SDS011;703;51.162;13.574;2023-11-18T16:41:23;10.27;;;9.67;;
1416;SDS011;703;51.162;13.574;2023-11-18T16:43:48;10.80;;;9.90;;
1416;SDS011;703;51.162;13.574;2023-11-18T16:46:14;8.90;;;8.40;;
1416;SDS011;703;51.162;13.574;2023-11-18T16:48:40;10.67;;;9.73;;
1416;SDS011;703;51.162;13.574;2023-11-18T16:51:06;9.20;;;8.50;;
1416;SDS011;703;51.162;13.574;2023-11-18T16:53:32;10.87;;;10.07;;
1416;SDS011;703;51.162;13.574;2023-11-18T16:55:58;11.40;;;10.43;;
1416;SDS011;703;51.162;13.574;2023-11-18T16:58:24;8.73;;;7.90;;
1416;SDS011;703;51.162;13.574;2023-11-18T17:00:50;9.27;;;8.47;;
1416;SDS011;703;51.162;13.574;2023-11-18T17:03:17;12.60;;;9.70;;
1416;SDS011;703;51.162;13.574;2023-11-18T17:05:43;9.63;;;8.93;;
1416;SDS011;703;51.162;13.574;2023-11-18T17:08:09;13.63;;;10.23;;
1416;SDS011;703;51.162;13.574;2023-11-18T17:10:35;9.90;;;9.30;;
1416;SDS011;703;51.162;13.574;2023-11-18T17:13:01;9.07;;;8.30;;
1416;SDS011;703;51.162;13.574;2023-11-18T17:15:27;8.40;;;7.60;;
1416;SDS011;703;51.162;13.574;2023-11-18T17:17:53;10.00;;;9.33;;
1416;SDS011;703;51.162;13.574;2023-11-18T17:20:25;8.97;;;8.43;;
1416;SDS011;703;51.162;13.574;2023-11-18T17:22:52;9.03;;;8.13;;
1416;SDS011;703;51.162;13.574;2023-11-18T17:25:17;11.30;;;9.20;;
1416;SDS011;703;51.162;13.574;2023-11-18T17:27:44;9.70;;;9.10;;
1416;SDS011;703;51.162;13.574;2023-11-18T17:30:11;7.03;;;6.70;;
1416;SDS011;703;51.162;13.574;2023-11-18T17:32:40;24.17;;;8.93;;
1416;SDS011;703;51.162;13.574;2023-11-18T17:35:07;9.77;;;8.83;;
1416;SDS011;703;51.162;13.574;2023-11-18T17:37:34;9.53;;;8.83;;
1416;SDS011;703;51.162;13.574;2023-11-18T17:40:02;7.23;;;6.90;;
1416;SDS011;703;51.162;13.574;2023-11-18T17:42:28;7.57;;;7.17;;
1416;SDS011;703;51.162;13.574;2023-11-18T17:44:54;14.33;;;8.27;;
1416;SDS011;703;51.162;13.574;2023-11-18T17:47:20;9.30;;;8.40;;
1416;SDS011;703;51.162;13.574;2023-11-18T17:49:47;8.83;;;8.33;;
1416;SDS011;703;51.162;13.574;2023-11-18T17:52:12;9.03;;;8.40;;
1416;SDS011;703;51.162;13.574;2023-11-18T17:54:39;10.80;;;8.57;;
1416;SDS011;703;51.162;13.574;2023-11-18T17:57:04;6.97;;;6.40;;
1416;SDS011;703;51.162;13.574;2023-11-18T17:59:30;11.50;;;7.97;;
1416;SDS011;703;51.162;13.574;2023-11-18T18:01:56;9.20;;;8.50;;
1416;SDS011;703;51.162;13.574;2023-11-18T18:04:22;8.13;;;7.43;;
1416;SDS011;703;51.162;13.574;2023-11-18T18:06:47;15.77;;;10.83;;
1416;SDS011;703;51.162;13.574;2023-11-18T18:09:13;17.40;;;10.67;;
1416;SDS011;703;51.162;13.574;2023-11-18T18:11:41;11.00;;;10.00;;
1416;SDS011;703;51.162;13.574;2023-11-18T18:14:07;7.83;;;7.33;;
1416;SDS011;703;51.162;13.574;2023-11-18T18:16:32;9.20;;;8.60;;
1416;SDS011;703;51.162;13.574;2023-11-18T18:18:58;8.07;;;7.43;;
1416;SDS011;703;51.162;13.574;2023-11-18T18:21:25;10.23;;;9.43;;
1416;SDS011;703;51.162;13.574;2023-11-18T18:23:50;8.13;;;7.50;;
1416;SDS011;703;51.162;13.574;2023-11-18T18:26:17;9.03;;;7.20;;
1416;SDS011;703;51.162;13.574;2023-11-18T18:28:43;9.10;;;8.33;;
1416;SDS011;703;51.162;13.574;2023-11-18T18:31:08;9.17;;;8.47;;
1416;SDS011;703;51.162;13.574;2023-11-18T18:33:34;30.67;;;8.47;;
1416;SDS011;703;51.162;13.574;2023-11-18T18:36:00;8.17;;;7.57;;
1416;SDS011;703;51.162;13.574;2023-11-18T18:38:25;9.27;;;8.37;;
1416;SDS011;703;51.162;13.574;2023-11-18T18:40:51;8.10;;;7.43;;
1416;SDS011;703;51.162;13.574;2023-11-18T18:43:16;8.17;;;7.03;;
1416;SDS011;703;51.162;13.574;2023-11-18T18:45:43;8.20;;;7.80;;
1416;SDS011;703;51.162;13.574;2023-11-18T18:48:08;10.20;;;9.40;;
1416;SDS011;703;51.162;13.574;2023-11-18T18:50:34;5.43;;;5.13;;
1416;SDS011;703;51.162;13.574;2023-11-18T18:53:02;10.10;;;9.37;;
1416;SDS011;703;51.162;13.574;2023-11-18T18:55:28;8.13;;;7.43;;
1416;SDS011;703;51.162;13.574;2023-11-18T18:57:53;12.80;;;9.07;;
1416;SDS011;703;51.162;13.574;2023-11-18T19:00:20;8.40;;;7.90;;
1416;SDS011;703;51.162;13.574;2023-11-18T19:02:45;9.47;;;8.77;;
1416;SDS011;703;51.162;13.574;2023-11-18T19:05:11;9.20;;;8.40;;
1416;SDS011;703;51.162;13.574;2023-11-18T19:07:39;9.53;;;8.73;;
1416;SDS011;703;51.162;13.574;2023-11-18T19:10:05;11.10;;;10.33;;
1416;SDS011;703;51.162;13.574;2023-11-18T19:12:33;8.90;;;8.40;;
1416;SDS011;703;51.162;13.574;2023-11-18T19:14:58;10.73;;;10.03;;
1416;SDS011;703;51.162;13.574;2023-11-18T19:17:28;7.93;;;7.53;;
1416;SDS011;703;51.162;13.574;2023-11-18T19:19:54;9.80;;;9.10;;
1416;SDS011;703;51.162;13.574;2023-11-18T19:22:19;7.33;;;6.93;;
1416;SDS011;703;51.162;13.574;2023-11-18T19:24:45;8.53;;;8.03;;
1416;SDS011;703;51.162;13.574;2023-11-18T19:27:12;6.03;;;5.43;;
1416;SDS011;703;51.162;13.574;2023-11-18T19:29:39;8.50;;;8.00;;
1416;SDS011;703;51.162;13.574;2023-11-18T19:32:05;8.50;;;7.90;;
1416;SDS011;703;51.162;13.574;2023-11-18T19:34:31;9.50;;;8.90;;
1416;SDS011;703;51.162;13.574;2023-11-18T19:36:57;9.67;;;8.97;;
1416;SDS011;703;51.162;13.574;2023-11-18T19:39:22;7.90;;;7.33;;
1416;SDS011;703;51.162;13.574;2023-11-18T19:41:48;7.83;;;7.17;;
1416;SDS011;703;51.162;13.574;2023-11-18T19:44:15;6.77;;;6.37;;
1416;SDS011;703;51.162;13.574;2023-11-18T19:46:41;7.47;;;7.07;;
1416;SDS011;703;51.162;13.574;2023-11-18T19:49:07;9.63;;;9.03;;
1416;SDS011;703;51.162;13.574;2023-11-18T19:51:34;9.27;;;8.67;;
1416;SDS011;703;51.162;13.574;2023-11-18T19:54:00;9.90;;;9.10;;
1416;SDS011;703;51.162;13.574;2023-11-18T19:56:25;12.80;;;7.73;;
1416;SDS011;703;51.162;13.574;2023-11-18T19:58:51;8.10;;;7.50;;
1416;SDS011;703;51.162;13.574;2023-11-18T20:01:17;6.07;;;5.83;;
1416;SDS011;703;51.162;13.574;2023-11-18T20:03:42;7.20;;;6.80;;
1416;SDS011;703;51.162;13.574;2023-11-18T20:06:08;9.00;;;8.20;;
1416;SDS011;703;51.162;13.574;2023-11-18T20:08:34;10.33;;;8.60;;
1416;SDS011;703;51.162;13.574;2023-11-18T20:10:59;10.07;;;9.17;;
1416;SDS011;703;51.162;13.574;2023-11-18T20:13:25;8.93;;;6.53;;
1416;SDS011;703;51.162;13.574;2023-11-18T20:15:50;10.30;;;9.73;;
1416;SDS011;703;51.162;13.574;2023-11-18T20:18:19;9.43;;;8.93;;
1416;SDS011;703;51.162;13.574;2023-11-18T20:20:45;6.40;;;5.90;;
1416;SDS011;703;51.162;13.574;2023-11-18T20:23:10;9.90;;;8.87;;
1416;SDS011;703;51.162;13.574;2023-11-18T20:25:37;6.77;;;6.37;;
1416;SDS011;703;51.162;13.574;2023-11-18T20:28:04;7.83;;;6.93;;
1416;SDS011;703;51.162;13.574;2023-11-18T20:30:30;7.53;;;6.93;;
1416;SDS011;703;51.162;13.574;2023-11-18T20:32:56;7.03;;;6.10;;
1416;SDS011;703;51.162;13.574;2023-11-18T20:35:22;9.50;;;8.90;;
1416;SDS011;703;51.162;13.574;2023-11-18T20:37:49;7.63;;;7.10;;
1416;SDS011;703;51.162;13.574;2023-11-18T20:40:17;10.03;;;8.83;;
1416;SDS011;703;51.162;13.574;2023-11-18T20:42:46;8.10;;;7.70;;
1416;SDS011;703;51.162;13.574;2023-11-18T20:45:15;10.13;;;9.33;;
1416;SDS011;703;51.162;13.574;2023-11-18T20:47:42;8.17;;;7.60;;
1416;SDS011;703;51.162;13.574;2023-11-18T20:50:09;9.63;;;8.87;;
1416;SDS011;703;51.162;13.574;2023-11-18T20:52:38;10.00;;;6.57;;
1416;SDS011;703;51.162;13.574;2023-11-18T20:55:04;7.27;;;6.90;;
1416;SDS011;703;51.162;13.574;2023-11-18T20:57:33;8.07;;;7.40;;
1416;SDS011;703;51.162;13.574;2023-11-18T21:00:00;11.03;;;7.07;;
1416;SDS011;703;51.162;13.574;2023-11-18T21:02:25;7.20;;;6.70;;
1416;SDS011;703;51.162;13.574;2023-11-18T21:04:51;6.57;;;6.07;;
1416;SDS011;703;51.162;13.574;2023-11-18T21:07:16;7.23;;;5.50;;
1416;SDS011;703;51.162;13.574;2023-11-18T21:09:42;8.03;;;7.33;;
1416;SDS011;703;51.162;13.574;2023-11-18T21:12:07;8.53;;;7.93;;
1416;SDS011;703;51.162;13.574;2023-11-18T21:14:33;7.23;;;6.73;;
1416;SDS011;703;51.162;13.574;2023-11-18T21:16:59;6.73;;;6.33;;
1416;SDS011;703;51.162;13.574;2023-11-18T21:19:25;6.40;;;6.10;;
1416;SDS011;703;51.162;13.574;2023-11-18T21:21:52;7.30;;;6.90;;
1416;SDS011;703;51.162;13.574;2023-11-18T21:24:17;7.73;;;7.33;;
1416;SDS011;703;51.162;13.574;2023-11-18T21:26:43;7.70;;;7.10;;
1416;SDS011;703;51.162;13.574;2023-11-18T21:29:10;10.90;;;8.67;;
1416;SDS011;703;51.162;13.574;2023-11-18T21:31:36;7.00;;;6.60;;
1416;SDS011;703;51.162;13.574;2023-11-18T21:34:02;8.37;;;7.77;;
1416;SDS011;703;51.162;13.574;2023-11-18T21:36:29;7.10;;;6.60;;
1416;SDS011;703;51.162;13.574;2023-11-18T21:38:56;5.60;;;5.30;;
1416;SDS011;703;51.162;13.574;2023-11-18T21:41:21;8.33;;;7.10;;
1416;SDS011;703;51.162;13.574;2023-11-18T21:43:47;8.03;;;7.53;;
1416;SDS011;703;51.162;13.574;2023-11-18T21:46:12;7.40;;;6.97;;
1416;SDS011;703;51.162;13.574;2023-11-18T21:48:38;8.10;;;7.50;;
1416;SDS011;703;51.162;13.574;2023-11-18T21:51:05;7.40;;;6.90;;
1416;SDS011;703;51.162;13.574;2023-11-18T21:53:32;8.03;;;7.53;;
1416;SDS011;703;51.162;13.574;2023-11-18T21:55:58;6.67;;;6.10;;
1416;SDS011;703;51.162;13.574;2023-11-18T21:58:25;10.50;;;7.27;;
1416;SDS011;703;51.162;13.574;2023-11-18T22:00:50;7.23;;;4.90;;
1416;SDS011;703;51.162;13.574;2023-11-18T22:03:16;7.30;;;6.90;;
1416;SDS011;703;51.162;13.574;2023-11-18T22:05:42;7.10;;;6.70;;
1416;SDS011;703;51.162;13.574;2023-11-18T22:08:09;7.33;;;6.83;;
1416;SDS011;703;51.162;13.574;2023-11-18T22:10:37;6.90;;;6.60;;
1416;SDS011;703;51.162;13.574;2023-11-18T22:13:02;7.60;;;7.10;;
1416;SDS011;703;51.162;13.574;2023-11-18T22:15:28;6.77;;;6.33;;
1416;SDS011;703;51.162;13.574;2023-11-18T22:17:54;6.57;;;6.07;;
1416;SDS011;703;51.162;13.574;2023-11-18T22:20:19;9.07;;;8.30;;
1416;SDS011;703;51.162;13.574;2023-11-18T22:22:49;6.60;;;6.13;;
1416;SDS011;703;51.162;13.574;2023-11-18T22:25:15;7.30;;;6.27;;
1416;SDS011;703;51.162;13.574;2023-11-18T22:27:40;5.93;;;5.57;;
1416;SDS011;703;51.162;13.574;2023-11-18T22:30:06;5.97;;;5.60;;
1416;SDS011;703;51.162;13.574;2023-11-18T22:32:33;6.93;;;6.53;;
1416;SDS011;703;51.162;13.574;2023-11-18T22:35:05;6.37;;;6.00;;
1416;SDS011;703;51.162;13.574;2023-11-18T22:37:34;6.20;;;5.80;;
1416;SDS011;703;51.162;13.574;2023-11-18T22:40:00;7.83;;;7.13;;
1416;SDS011;703;51.162;13.574;2023-11-18T22:42:33;5.13;;;4.93;;
1416;SDS011;703;51.162;13.574;2023-11-18T22:44:59;8.20;;;7.60;;
1416;SDS011;703;51.162;13.574;2023-11-18T22:47:25;7.57;;;6.80;;
1416;SDS011;703;51.162;13.574;2023-11-18T22:49:50;6.60;;;6.20;;
1416;SDS011;703;51.162;13.574;2023-11-18T22:52:16;7.03;;;5.80;;
1416;SDS011;703;51.162;13.574;2023-11-18T22:54:41;6.20;;;5.80;;
1416;SDS011;703;51.162;13.574;2023-11-18T22:57:09;7.97;;;7.37;;
1416;SDS011;703;51.162;13.574;2023-11-18T22:59:35;5.87;;;5.43;;
1416;SDS011;703;51.162;13.574;2023-11-18T23:02:01;8.33;;;7.73;;
1416;SDS011;703;51.162;13.574;2023-11-18T23:04:29;7.43;;;6.83;;
1416;SDS011;703;51.162;13.574;2023-11-18T23:06:54;7.30;;;6.57;;
1416;SDS011;703;51.162;13.574;2023-11-18T23:09:21;8.80;;;8.10;;
1416;SDS011;703;51.162;13.574;2023-11-18T23:11:49;11.17;;;9.97;;
1416;SDS011;703;51.162;13.574;2023-11-18T23:14:16;9.80;;;8.77;;
1416;SDS011;703;51.162;13.574;2023-11-18T23:16:42;8.77;;;8.13;;
1416;SDS011;703;51.162;13.574;2023-11-18T23:19:08;6.63;;;6.23;;
1416;SDS011;703;51.162;13.574;2023-11-18T23:21:35;8.57;;;7.90;;
1416;SDS011;703;51.162;13.574;2023-11-18T23:24:01;7.60;;;7.13;;
1416;SDS011;703;51.162;13.574;2023-11-18T23:26:27;7.57;;;6.10;;
1416;SDS011;703;51.162;13.574;2023-11-18T23:28:52;7.80;;;7.27;;
1416;SDS011;703;51.162;13.574;2023-11-18T23:31:18;8.13;;;7.70;;
1416;SDS011;703;51.162;13.574;2023-11-18T23:33:44;19.33;;;8.37;;
1416;SDS011;703;51.162;13.574;2023-11-18T23:36:09;8.33;;;7.83;;
1416;SDS011;703;51.162;13.574;2023-11-18T23:38:39;9.37;;;8.83;;
1416;SDS011;703;51.162;13.574;2023-11-18T23:41:04;7.27;;;6.67;;
1416;SDS011;703;51.162;13.574;2023-11-18T23:43:31;7.33;;;6.83;;
1416;SDS011;703;51.162;13.574;2023-11-18T23:45:59;6.40;;;5.90;;
1416;SDS011;703;51.162;13.574;2023-11-18T23:48:25;9.20;;;8.63;;
1416;SDS011;703;51.162;13.574;2023-11-18T23:50:51;7.17;;;6.57;;
1416;SDS011;703;51.162;13.574;2023-11-18T23:53:17;8.00;;;7.43;;
1416;SDS011;703;51.162;13.574;2023-11-18T23:55:42;6.67;;;5.87;;
1416;SDS011;703;51.162;13.574;2023-11-18T23:58:08;12.37;;;6.40;;
